KJRB/JRB METAR and TAF weather

Enter ICAO airport designator
Station Type Date Time Source
KJRB METAR 2022/05/26 04:56 UTC NOAA

KJRB 260456Z AUTO 13005KT 10SM CLR 14/07 A3038 RMK AO2 SLP285 T01390067 402110139


Station Type Date Time Source
KJRB Decoded METAR 2022/05/26 04:56 UTC NOAA

Station name not available
May 26, 2022 - 12:56 AM EDT / 2022.05.26 0456 UTC
Wind: from the SE (130 degrees) at 6 MPH (5 KT):0
Visibility: 10 mile(s):0
Sky conditions: clear
Temperature: 57.0 F (13.9 C)
Dew Point: 44.1 F (6.7 C)
Relative Humidity: 61%
Pressure (altimeter): 30.38 in. Hg (1028 hPa)
ob: KJRB 260456Z AUTO 13005KT 10SM CLR 14/07 A3038 RMK AO2 SLP285 T01390067 402110139
cycle: 5

Station Type Date Time Source
KJRB TAF UTC NOAA

Error!

Example: see airport list